Los Angeles, California
Traffic Map
Current Weather Conditions
Los Angeles, California
Clear
Clear
56°
Feels Like: 56°
Wind Chill: 56° Ceiling: Unl
Heat Index: 56° Visibility: 10mi
Dew Point: 38° Wind: 0mph
Humidity: 51% Direction: ° ()
Pressure: 30.16in Gusts: 0mph
Raw Report DataKCQT 230347Z AUTO 00000KT 10SM CLR 13/03 A3016 RMK AO2 SLP213 T01330033
Traffic Incident Summary
Active as of:
Severity:
Category:
InformationThere was an issue retrieving the traffic information for this location. Please try a different location or try again shortly.
Advertisements